Airfield :
LOGIN :

Register | Disclaimer

   EN    FR    IT 

 










Legend :    VFR   Marginal VFR   IFR   Intensive IFR   Very Intensive IFR
Visi :
Ceiling :
>= 8 km
>= 3000ft
5 to 8 km
1000 to 3000 ft
1500m to 5 km
500 to 1000 ft
800 to 1500m
200 to 500 ft
< 800m
< 200 ft
Symbols :   Thunderstorms  Fog  Heavy snow  Heavy precipitations  Wind > 20 kt
SIGMETs :     Misc.  Thunderstorms  Icing  Turbulence  Mountain Waves  Volcanic Ashes






- Airport Elevation : 20 ft


EBFN - Koksijde

CURRENT METAR :
  • 200425Z AUTO 34016KT 9999 BKN046/// 07/00 Q1022 BLU

EXPIRED METARs :
  • 200355Z AUTO 36018KT 9999 -DZ BKN038/// 07/01 Q1022 BLU
  • 200325Z AUTO 34014KT 9999 OVC061/// 07/01 Q1021 BLU
  • 200255Z AUTO 35015KT 9999 FEW025/// BKN056/// 07/03 Q1021 BLU
  • 200225Z AUTO 35011KT 9999 BKN023/// BKN070/// 06/01 Q1021 WHT
  • 200218Z AUTO 35017KT 9999 BKN021/// BKN039/// BKN071/// 05/02 Q1021 WHT
  • 200207Z AUTO 35020G34KT 3000 -RASN FEW019/// BKN028/// BKN071/// 05/01 Q1021 YLO
  • 200143Z AUTO 34011KT 9999 SCT026/// BKN055/// 07/03 Q1021 BLU
  • 200103Z AUTO 35020KT 8000 -RA SCT023/// BKN059/// 06/03 Q1021 WHT
  • 200025Z AUTO 01013KT 9999 FEW018/// BKN027/// 06/03 Q1020 BLU
  • 192355Z AUTO 35017KT 9999 BKN018/// BKN067/// 06/03 Q1021 WHT
  • 192353Z AUTO 35019KT 9999 -RA BKN019/// 06/03 Q1021 WHT
  • 192342Z AUTO 35020G34KT 4500 RA FEW015/// BKN027/// BKN059/// 06/03 Q1021 GRN

TAF TAF EBFN
Valid from the 19 at 19:00 until the 20 at 07:00 UTC


191541Z 1919/2007 35020G30KT 9999 SCT024 BKN040
PROB40
TEMPO 1919/2007 FEW027 SCT060
TEMPO 1922/2007 35022G35KT 8000 -SHRA SCT018TCU BKN060



MET'MAP, your aeronautical weather chart ! - Copyright ORBIFLY December 2007 - Disclaimer

ORBIFLY MET'MAP TEAM :

Programming & Development : Alexandra Zaïnal
Original concept : Baudouin d'Aumeries
Technical & hardware support : Manuel Goepfert
Assistance : Marc-Olivier Méhu




SOURCES & CREDITS :

   NOAA